sensor_id;sensor_type;location;lat;lon;timestamp;pressure;altitude;pressure_sealevel;temperature;humidity
49459;BME280;35354;51.296;16.924;2022-10-16T00:00:36;99553.47;;;11.90;100.00
49459;BME280;35354;51.296;16.924;2022-10-16T00:03:02;99543.13;;;11.89;100.00
49459;BME280;35354;51.296;16.924;2022-10-16T00:05:28;99548.69;;;11.98;100.00
49459;BME280;35354;51.296;16.924;2022-10-16T00:07:53;99549.28;;;12.04;100.00
49459;BME280;35354;51.296;16.924;2022-10-16T00:10:19;99558.38;;;12.12;100.00
49459;BME280;35354;51.296;16.924;2022-10-16T00:12:44;99541.19;;;12.08;100.00
49459;BME280;35354;51.296;16.924;2022-10-16T00:15:09;99545.31;;;12.12;100.00
49459;BME280;35354;51.296;16.924;2022-10-16T00:17:35;99554.53;;;12.19;100.00
49459;BME280;35354;51.296;16.924;2022-10-16T00:20:00;99564.56;;;12.27;100.00
49459;BME280;35354;51.296;16.924;2022-10-16T00:22:26;99547.53;;;12.20;100.00
49459;BME280;35354;51.296;16.924;2022-10-16T00:24:51;99554.00;;;12.29;100.00
49459;BME280;35354;51.296;16.924;2022-10-16T00:27:17;99558.81;;;12.36;100.00
49459;BME280;35354;51.296;16.924;2022-10-16T00:29:42;99556.09;;;12.38;100.00
49459;BME280;35354;51.296;16.924;2022-10-16T00:32:08;99539.94;;;12.31;100.00
49459;BME280;35354;51.296;16.924;2022-10-16T00:34:34;99550.72;;;12.41;100.00
49459;BME280;35354;51.296;16.924;2022-10-16T00:37:00;99553.91;;;12.46;100.00
49459;BME280;35354;51.296;16.924;2022-10-16T00:39:25;99542.63;;;12.45;100.00
49459;BME280;35354;51.296;16.924;2022-10-16T00:41:51;99542.72;;;12.44;100.00
49459;BME280;35354;51.296;16.924;2022-10-16T00:47:09;99547.53;;;12.52;100.00
49459;BME280;35354;51.296;16.924;2022-10-16T00:49:38;99538.06;;;12.49;100.00
49459;BME280;35354;51.296;16.924;2022-10-16T00:52:05;99542.38;;;12.50;100.00
49459;BME280;35354;51.296;16.924;2022-10-16T00:54:31;99541.00;;;12.59;100.00
49459;BME280;35354;51.296;16.924;2022-10-16T00:57:00;99539.22;;;12.59;100.00
49459;BME280;35354;51.296;16.924;2022-10-16T00:59:31;99542.63;;;12.61;100.00
49459;BME280;35354;51.296;16.924;2022-10-16T01:01:59;99539.44;;;12.56;100.00
49459;BME280;35354;51.296;16.924;2022-10-16T01:04:25;99541.19;;;12.56;100.00
49459;BME280;35354;51.296;16.924;2022-10-16T01:06:57;99554.56;;;12.65;100.00
49459;BME280;35354;51.296;16.924;2022-10-16T01:15:27;99548.00;;;12.58;100.00
49459;BME280;35354;51.296;16.924;2022-10-16T01:17:59;99552.97;;;12.63;100.00
49459;BME280;35354;51.296;16.924;2022-10-16T01:23:02;99560.22;;;12.58;100.00
49459;BME280;35354;51.296;16.924;2022-10-16T01:28:37;99561.59;;;12.49;100.00
49459;BME280;35354;51.296;16.924;2022-10-16T01:31:05;99560.75;;;12.48;100.00
49459;BME280;35354;51.296;16.924;2022-10-16T01:33:38;99563.25;;;12.50;100.00
49459;BME280;35354;51.296;16.924;2022-10-16T01:36:13;99567.56;;;12.51;100.00
49459;BME280;35354;51.296;16.924;2022-10-16T01:38:43;99555.69;;;12.45;100.00
49459;BME280;35354;51.296;16.924;2022-10-16T01:41:37;99550.47;;;12.45;100.00
49459;BME280;35354;51.296;16.924;2022-10-16T01:44:08;99567.50;;;12.53;100.00
49459;BME280;35354;51.296;16.924;2022-10-16T01:46:37;99565.72;;;12.53;100.00
49459;BME280;35354;51.296;16.924;2022-10-16T01:49:05;99563.09;;;12.53;100.00
49459;BME280;35354;51.296;16.924;2022-10-16T01:51:32;99563.09;;;12.53;100.00
49459;BME280;35354;51.296;16.924;2022-10-16T01:54:00;99570.78;;;12.56;100.00
49459;BME280;35354;51.296;16.924;2022-10-16T01:56:28;99569.06;;;12.55;100.00
49459;BME280;35354;51.296;16.924;2022-10-16T01:58:59;99567.31;;;12.56;100.00
49459;BME280;35354;51.296;16.924;2022-10-16T02:01:28;99564.72;;;12.56;100.00
49459;BME280;35354;51.296;16.924;2022-10-16T02:03:59;99574.97;;;12.59;100.00
49459;BME280;35354;51.296;16.924;2022-10-16T02:06:26;99566.56;;;12.54;100.00
49459;BME280;35354;51.296;16.924;2022-10-16T02:08:53;99575.66;;;12.62;100.00
49459;BME280;35354;51.296;16.924;2022-10-16T02:11:18;99580.78;;;12.64;100.00
49459;BME280;35354;51.296;16.924;2022-10-16T02:13:46;99583.47;;;12.62;100.00
49459;BME280;35354;51.296;16.924;2022-10-16T02:16:14;99570.59;;;12.59;100.00
49459;BME280;35354;51.296;16.924;2022-10-16T02:18:41;99570.41;;;12.62;100.00
49459;BME280;35354;51.296;16.924;2022-10-16T02:21:19;99578.00;;;12.67;100.00
49459;BME280;35354;51.296;16.924;2022-10-16T02:26:35;99590.81;;;12.71;100.00
49459;BME280;35354;51.296;16.924;2022-10-16T02:29:07;99579.66;;;12.68;100.00
49459;BME280;35354;51.296;16.924;2022-10-16T02:31:38;99588.13;;;12.73;100.00
49459;BME280;35354;51.296;16.924;2022-10-16T02:34:06;99590.81;;;12.71;100.00
49459;BME280;35354;51.296;16.924;2022-10-16T02:36:35;99590.63;;;12.74;100.00
49459;BME280;35354;51.296;16.924;2022-10-16T02:39:02;99600.72;;;12.81;100.00
49459;BME280;35354;51.296;16.924;2022-10-16T02:41:29;99595.44;;;12.82;100.00
49459;BME280;35354;51.296;16.924;2022-10-16T02:43:54;99592.06;;;12.80;100.00
49459;BME280;35354;51.296;16.924;2022-10-16T02:46:20;99597.13;;;12.83;100.00
49459;BME280;35354;51.296;16.924;2022-10-16T02:48:46;99602.44;;;12.82;100.00
49459;BME280;35354;51.296;16.924;2022-10-16T02:51:11;99592.81;;;12.82;100.00
49459;BME280;35354;51.296;16.924;2022-10-16T02:53:36;99588.53;;;12.81;100.00
49459;BME280;35354;51.296;16.924;2022-10-16T02:56:02;99609.06;;;12.87;100.00
49459;BME280;35354;51.296;16.924;2022-10-16T02:58:27;99598.88;;;12.83;100.00
49459;BME280;35354;51.296;16.924;2022-10-16T03:00:52;99593.75;;;12.81;100.00
49459;BME280;35354;51.296;16.924;2022-10-16T03:03:18;99603.00;;;12.87;100.00
49459;BME280;35354;51.296;16.924;2022-10-16T03:05:43;99603.00;;;12.87;100.00
49459;BME280;35354;51.296;16.924;2022-10-16T03:08:11;99600.41;;;12.87;100.00
49459;BME280;35354;51.296;16.924;2022-10-16T03:10:37;99599.56;;;12.86;100.00
49459;BME280;35354;51.296;16.924;2022-10-16T03:13:02;99591.16;;;12.81;100.00
49459;BME280;35354;51.296;16.924;2022-10-16T03:15:28;99611.97;;;12.83;100.00
49459;BME280;35354;51.296;16.924;2022-10-16T03:17:54;99608.41;;;12.84;100.00
49459;BME280;35354;51.296;16.924;2022-10-16T03:20:19;99615.41;;;12.83;100.00
49459;BME280;35354;51.296;16.924;2022-10-16T03:22:45;99588.03;;;12.74;100.00
49459;BME280;35354;51.296;16.924;2022-10-16T03:25:10;99601.66;;;12.80;100.00
49459;BME280;35354;51.296;16.924;2022-10-16T03:27:35;99587.19;;;12.74;100.00
49459;BME280;35354;51.296;16.924;2022-10-16T03:30:01;99611.38;;;12.78;100.00
49459;BME280;35354;51.296;16.924;2022-10-16T03:32:26;99604.81;;;12.70;100.00
49459;BME280;35354;51.296;16.924;2022-10-16T03:34:53;99615.84;;;12.76;100.00
49459;BME280;35354;51.296;16.924;2022-10-16T03:37:19;99616.94;;;12.71;100.00
49459;BME280;35354;51.296;16.924;2022-10-16T03:39:45;99621.47;;;12.68;100.00
49459;BME280;35354;51.296;16.924;2022-10-16T03:42:10;99620.16;;;12.61;100.00
49459;BME280;35354;51.296;16.924;2022-10-16T03:44:35;99621.84;;;12.62;100.00
49459;BME280;35354;51.296;16.924;2022-10-16T03:47:01;99629.25;;;12.69;100.00
49459;BME280;35354;51.296;16.924;2022-10-16T03:49:26;99623.19;;;12.69;100.00
49459;BME280;35354;51.296;16.924;2022-10-16T03:51:51;99630.25;;;12.67;100.00
49459;BME280;35354;51.296;16.924;2022-10-16T03:54:17;99619.91;;;12.65;100.00
49459;BME280;35354;51.296;16.924;2022-10-16T03:56:42;99632.53;;;12.73;100.00
49459;BME280;35354;51.296;16.924;2022-10-16T03:59:07;99634.31;;;12.72;100.00
49459;BME280;35354;51.296;16.924;2022-10-16T04:01:33;99631.03;;;12.69;100.00
49459;BME280;35354;51.296;16.924;2022-10-16T04:03:58;99624.19;;;12.66;100.00
49459;BME280;35354;51.296;16.924;2022-10-16T04:06:24;99627.47;;;12.70;100.00
49459;BME280;35354;51.296;16.924;2022-10-16T04:08:49;99631.88;;;12.69;100.00
49459;BME280;35354;51.296;16.924;2022-10-16T04:11:14;99630.94;;;12.70;100.00
49459;BME280;35354;51.296;16.924;2022-10-16T04:13:40;99625.19;;;12.64;100.00
49459;BME280;35354;51.296;16.924;2022-10-16T04:16:05;99638.94;;;12.67;100.00
49459;BME280;35354;51.296;16.924;2022-10-16T04:18:30;99624.63;;;12.59;100.00
49459;BME280;35354;51.296;16.924;2022-10-16T04:20:56;99632.44;;;12.59;100.00
49459;BME280;35354;51.296;16.924;2022-10-16T04:23:21;99635.91;;;12.59;100.00
49459;BME280;35354;51.296;16.924;2022-10-16T04:25:48;99625.91;;;12.52;100.00
49459;BME280;35354;51.296;16.924;2022-10-16T04:28:13;99621.66;;;12.49;100.00
49459;BME280;35354;51.296;16.924;2022-10-16T04:30:39;99632.69;;;12.54;100.00
49459;BME280;35354;51.296;16.924;2022-10-16T04:33:04;99641.31;;;12.56;100.00
49459;BME280;35354;51.296;16.924;2022-10-16T04:35:30;99645.59;;;12.57;100.00
49459;BME280;35354;51.296;16.924;2022-10-16T04:37:58;99650.47;;;12.63;100.00
49459;BME280;35354;51.296;16.924;2022-10-16T04:40:23;99656.47;;;12.65;100.00
49459;BME280;35354;51.296;16.924;2022-10-16T04:42:49;99646.34;;;12.59;100.00
49459;BME280;35354;51.296;16.924;2022-10-16T04:45:14;99654.03;;;12.62;100.00
49459;BME280;35354;51.296;16.924;2022-10-16T04:47:39;99644.69;;;12.58;100.00
49459;BME280;35354;51.296;16.924;2022-10-16T04:50:05;99659.69;;;12.70;100.00
49459;BME280;35354;51.296;16.924;2022-10-16T04:52:31;99655.38;;;12.69;100.00
49459;BME280;35354;51.296;16.924;2022-10-16T04:54:57;99658.75;;;12.71;100.00
49459;BME280;35354;51.296;16.924;2022-10-16T04:57:26;99653.53;;;12.71;100.00
49459;BME280;35354;51.296;16.924;2022-10-16T04:59:52;99657.66;;;12.76;100.00
49459;BME280;35354;51.296;16.924;2022-10-16T05:02:17;99662.56;;;12.82;100.00
49459;BME280;35354;51.296;16.924;2022-10-16T05:04:42;99644.50;;;12.77;100.00
49459;BME280;35354;51.296;16.924;2022-10-16T05:07:08;99655.72;;;12.79;100.00
49459;BME280;35354;51.296;16.924;2022-10-16T05:09:33;99654.72;;;12.82;100.00
49459;BME280;35354;51.296;16.924;2022-10-16T05:11:59;99645.50;;;12.74;100.00
49459;BME280;35354;51.296;16.924;2022-10-16T05:14:24;99649.81;;;12.76;100.00
49459;BME280;35354;51.296;16.924;2022-10-16T05:16:49;99653.53;;;12.71;100.00
49459;BME280;35354;51.296;16.924;2022-10-16T05:19:15;99678.56;;;12.76;100.00
49459;BME280;35354;51.296;16.924;2022-10-16T05:21:40;99673.59;;;12.71;100.00
49459;BME280;35354;51.296;16.924;2022-10-16T05:24:06;99681.34;;;12.72;100.00
49459;BME280;35354;51.296;16.924;2022-10-16T05:26:31;99677.38;;;12.65;100.00
49459;BME280;35354;51.296;16.924;2022-10-16T05:28:57;99688.44;;;12.70;100.00
49459;BME280;35354;51.296;16.924;2022-10-16T05:31:22;99682.34;;;12.70;100.00
49459;BME280;35354;51.296;16.924;2022-10-16T05:33:47;99672.84;;;12.69;100.00
49459;BME280;35354;51.296;16.924;2022-10-16T05:36:13;99681.44;;;12.71;100.00
49459;BME280;35354;51.296;16.924;2022-10-16T05:38:39;99668.63;;;12.66;100.00
49459;BME280;35354;51.296;16.924;2022-10-16T05:41:05;99672.06;;;12.67;100.00
49459;BME280;35354;51.296;16.924;2022-10-16T05:43:32;99683.19;;;12.70;100.00
49459;BME280;35354;51.296;16.924;2022-10-16T05:46:01;99689.09;;;12.74;100.00
49459;BME280;35354;51.296;16.924;2022-10-16T05:48:27;99684.13;;;12.69;100.00
49459;BME280;35354;51.296;16.924;2022-10-16T05:51:00;99694.25;;;12.76;100.00
49459;BME280;35354;51.296;16.924;2022-10-16T05:53:27;99700.41;;;12.74;100.00
49459;BME280;35354;51.296;16.924;2022-10-16T05:55:53;99702.84;;;12.78;100.00
49459;BME280;35354;51.296;16.924;2022-10-16T05:58:19;99700.16;;;12.79;100.00
49459;BME280;35354;51.296;16.924;2022-10-16T06:00:44;99704.38;;;12.82;100.00
49459;BME280;35354;51.296;16.924;2022-10-16T06:03:10;99702.50;;;12.84;100.00
49459;BME280;35354;51.296;16.924;2022-10-16T06:05:35;99704.97;;;12.87;100.00
49459;BME280;35354;51.296;16.924;2022-10-16T06:08:01;99712.19;;;12.97;100.00
49459;BME280;35354;51.296;16.924;2022-10-16T06:10:26;99715.69;;;12.98;100.00
49459;BME280;35354;51.296;16.924;2022-10-16T06:12:51;99712.88;;;13.01;100.00
49459;BME280;35354;51.296;16.924;2022-10-16T06:15:16;99724.09;;;13.03;100.00
49459;BME280;35354;51.296;16.924;2022-10-16T06:17:42;99724.69;;;13.08;100.00
49459;BME280;35354;51.296;16.924;2022-10-16T06:20:07;99717.78;;;13.07;100.00
49459;BME280;35354;51.296;16.924;2022-10-16T06:22:33;99722.66;;;13.13;100.00
49459;BME280;35354;51.296;16.924;2022-10-16T06:24:58;99724.53;;;13.11;100.00
49459;BME280;35354;51.296;16.924;2022-10-16T06:27:23;99726.03;;;13.15;100.00
49459;BME280;35354;51.296;16.924;2022-10-16T06:29:49;99741.38;;;13.21;100.00
49459;BME280;35354;51.296;16.924;2022-10-16T06:32:14;99732.84;;;13.18;100.00
49459;BME280;35354;51.296;16.924;2022-10-16T06:34:39;99744.44;;;13.30;100.00
49459;BME280;35354;51.296;16.924;2022-10-16T06:37:06;99756.06;;;13.40;100.00
49459;BME280;35354;51.296;16.924;2022-10-16T06:39:31;99746.09;;;13.46;100.00
49459;BME280;35354;51.296;16.924;2022-10-16T06:41:56;99737.97;;;13.51;100.00
49459;BME280;35354;51.296;16.924;2022-10-16T06:44:22;99741.66;;;13.63;100.00
49459;BME280;35354;51.296;16.924;2022-10-16T06:46:47;99757.81;;;13.85;100.00
49459;BME280;35354;51.296;16.924;2022-10-16T06:49:12;99747.72;;;13.93;100.00
49459;BME280;35354;51.296;16.924;2022-10-16T06:51:38;99754.56;;;13.96;100.00
49459;BME280;35354;51.296;16.924;2022-10-16T06:54:06;99759.31;;;13.89;100.00
49459;BME280;35354;51.296;16.924;2022-10-16T06:56:32;99760.16;;;13.90;100.00
49459;BME280;35354;51.296;16.924;2022-10-16T06:58:58;99782.53;;;13.95;100.00
49459;BME280;35354;51.296;16.924;2022-10-16T07:01:24;99785.44;;;13.91;100.00
49459;BME280;35354;51.296;16.924;2022-10-16T07:03:50;99770.16;;;13.83;100.00
49459;BME280;35354;51.296;16.924;2022-10-16T07:06:18;99779.59;;;13.86;100.00
49459;BME280;35354;51.296;16.924;2022-10-16T07:08:45;99773.34;;;13.88;100.00
49459;BME280;35354;51.296;16.924;2022-10-16T07:11:13;99771.97;;;13.97;100.00
49459;BME280;35354;51.296;16.924;2022-10-16T07:13:40;99761.22;;;14.02;100.00
49459;BME280;35354;51.296;16.924;2022-10-16T07:16:08;99787.75;;;14.26;100.00
49459;BME280;35354;51.296;16.924;2022-10-16T07:18:35;99783.63;;;14.36;100.00
49459;BME280;35354;51.296;16.924;2022-10-16T07:23:34;99784.97;;;14.57;100.00
49459;BME280;35354;51.296;16.924;2022-10-16T07:25:59;99787.91;;;14.67;100.00
49459;BME280;35354;51.296;16.924;2022-10-16T07:28:25;99793.78;;;14.85;100.00
49459;BME280;35354;51.296;16.924;2022-10-16T07:30:51;99787.50;;;15.02;100.00
49459;BME280;35354;51.296;16.924;2022-10-16T07:33:16;99792.69;;;15.16;100.00
49459;BME280;35354;51.296;16.924;2022-10-16T07:35:52;99786.78;;;15.27;100.00
49459;BME280;35354;51.296;16.924;2022-10-16T07:38:18;99791.13;;;15.40;100.00
49459;BME280;35354;51.296;16.924;2022-10-16T07:40:44;99790.31;;;15.67;100.00
49459;BME280;35354;51.296;16.924;2022-10-16T07:43:10;99792.66;;;15.84;100.00
49459;BME280;35354;51.296;16.924;2022-10-16T07:45:36;99782.25;;;16.10;100.00
49459;BME280;35354;51.296;16.924;2022-10-16T07:48:01;99776.66;;;16.14;100.00
49459;BME280;35354;51.296;16.924;2022-10-16T07:50:26;99776.25;;;16.46;100.00
49459;BME280;35354;51.296;16.924;2022-10-16T07:52:52;99788.88;;;16.79;100.00
49459;BME280;35354;51.296;16.924;2022-10-16T07:55:17;99783.44;;;17.06;100.00
49459;BME280;35354;51.296;16.924;2022-10-16T07:57:43;99782.31;;;17.34;100.00
49459;BME280;35354;51.296;16.924;2022-10-16T08:00:08;99790.16;;;17.71;100.00
49459;BME280;35354;51.296;16.924;2022-10-16T08:02:39;99808.28;;;18.11;100.00
49459;BME280;35354;51.296;16.924;2022-10-16T08:05:05;99801.50;;;18.31;100.00
49459;BME280;35354;51.296;16.924;2022-10-16T08:07:30;99803.66;;;18.26;100.00
49459;BME280;35354;51.296;16.924;2022-10-16T08:09:56;99820.31;;;18.26;99.32
49459;BME280;35354;51.296;16.924;2022-10-16T08:12:23;99805.63;;;18.00;98.08
49459;BME280;35354;51.296;16.924;2022-10-16T08:14:48;99803.16;;;17.85;98.96
49459;BME280;35354;51.296;16.924;2022-10-16T08:17:14;99808.94;;;17.90;99.67
49459;BME280;35354;51.296;16.924;2022-10-16T08:19:44;99805.47;;;17.90;99.33
49459;BME280;35354;51.296;16.924;2022-10-16T08:22:09;99815.09;;;18.02;99.56
49459;BME280;35354;51.296;16.924;2022-10-16T08:24:35;99812.09;;;18.07;98.90
49459;BME280;35354;51.296;16.924;2022-10-16T08:27:02;99810.34;;;18.18;99.12
49459;BME280;35354;51.296;16.924;2022-10-16T08:29:28;99818.28;;;18.41;98.32
49459;BME280;35354;51.296;16.924;2022-10-16T08:31:53;99818.44;;;18.51;98.26
49459;BME280;35354;51.296;16.924;2022-10-16T08:34:18;99805.59;;;18.57;96.74
49459;BME280;35354;51.296;16.924;2022-10-16T08:36:44;99816.78;;;18.61;96.62
49459;BME280;35354;51.296;16.924;2022-10-16T08:39:09;99810.78;;;18.59;96.88
49459;BME280;35354;51.296;16.924;2022-10-16T08:47:22;99819.31;;;18.96;96.02
49459;BME280;35354;51.296;16.924;2022-10-16T08:50:02;99829.38;;;19.25;94.78
49459;BME280;35354;51.296;16.924;2022-10-16T08:52:35;99833.78;;;19.47;94.51
49459;BME280;35354;51.296;16.924;2022-10-16T08:55:03;99837.13;;;19.60;93.81
49459;BME280;35354;51.296;16.924;2022-10-16T08:57:29;99847.13;;;19.45;91.68
49459;BME280;35354;51.296;16.924;2022-10-16T09:00:00;99835.38;;;19.27;92.69
49459;BME280;35354;51.296;16.924;2022-10-16T09:08:31;99843.19;;;18.72;94.46
49459;BME280;35354;51.296;16.924;2022-10-16T09:11:07;99829.72;;;18.41;94.89
49459;BME280;35354;51.296;16.924;2022-10-16T09:13:47;99826.91;;;18.20;96.05
49459;BME280;35354;51.296;16.924;2022-10-16T09:16:32;99832.00;;;18.11;96.89
49459;BME280;35354;51.296;16.924;2022-10-16T09:19:33;99854.19;;;18.08;98.13
49459;BME280;35354;51.296;16.924;2022-10-16T09:22:12;99843.50;;;18.10;98.64
49459;BME280;35354;51.296;16.924;2022-10-16T09:24:39;99842.53;;;18.11;98.77
49459;BME280;35354;51.296;16.924;2022-10-16T09:27:06;99841.00;;;18.19;98.61
49459;BME280;35354;51.296;16.924;2022-10-16T09:29:33;99842.97;;;18.29;98.80
49459;BME280;35354;51.296;16.924;2022-10-16T09:32:08;99844.91;;;18.38;98.55
49459;BME280;35354;51.296;16.924;2022-10-16T09:34:43;99846.63;;;18.50;97.79
49459;BME280;35354;51.296;16.924;2022-10-16T09:37:14;99841.69;;;18.57;97.56
49459;BME280;35354;51.296;16.924;2022-10-16T09:39:44;99854.66;;;18.60;97.64
49459;BME280;35354;51.296;16.924;2022-10-16T09:42:13;99847.56;;;18.49;97.49
49459;BME280;35354;51.296;16.924;2022-10-16T09:44:39;99851.88;;;18.39;97.14
49459;BME280;35354;51.296;16.924;2022-10-16T09:47:17;99852.00;;;18.37;97.93
49459;BME280;35354;51.296;16.924;2022-10-16T09:49:53;99855.56;;;18.36;98.27
49459;BME280;35354;51.296;16.924;2022-10-16T09:52:19;99849.94;;;18.30;98.18
49459;BME280;35354;51.296;16.924;2022-10-16T09:54:58;99850.63;;;18.32;98.22
49459;BME280;35354;51.296;16.924;2022-10-16T09:57:25;99845.00;;;18.36;98.26
49459;BME280;35354;51.296;16.924;2022-10-16T09:59:55;99847.69;;;18.48;97.24
49459;BME280;35354;51.296;16.924;2022-10-16T10:02:34;99834.41;;;18.60;96.70
49459;BME280;35354;51.296;16.924;2022-10-16T10:05:01;99837.09;;;18.72;96.25
49459;BME280;35354;51.296;16.924;2022-10-16T10:07:32;99853.50;;;18.86;95.79
49459;BME280;35354;51.296;16.924;2022-10-16T10:09:59;99850.06;;;18.97;95.33
49459;BME280;35354;51.296;16.924;2022-10-16T10:12:30;99851.00;;;19.18;94.55
49459;BME280;35354;51.296;16.924;2022-10-16T10:15:21;99857.22;;;19.29;92.88
49459;BME280;35354;51.296;16.924;2022-10-16T10:17:51;99833.59;;;19.16;93.05
49459;BME280;35354;51.296;16.924;2022-10-16T10:22:50;99842.66;;;19.45;93.62
49459;BME280;35354;51.296;16.924;2022-10-16T10:25:22;99845.66;;;19.52;93.75
49459;BME280;35354;51.296;16.924;2022-10-16T10:33:31;99855.38;;;19.63;93.14
49459;BME280;35354;51.296;16.924;2022-10-16T10:36:09;99842.41;;;19.60;93.28
49459;BME280;35354;51.296;16.924;2022-10-16T10:38:59;99848.06;;;19.66;93.15
49459;BME280;35354;51.296;16.924;2022-10-16T10:52:37;99840.78;;;19.80;91.81
49459;BME280;35354;51.296;16.924;2022-10-16T10:55:15;99842.13;;;19.85;91.42
49459;BME280;35354;51.296;16.924;2022-10-16T11:05:43;99844.28;;;20.12;90.21
49459;BME280;35354;51.296;16.924;2022-10-16T11:08:23;99845.31;;;20.21;90.09
49459;BME280;35354;51.296;16.924;2022-10-16T11:11:04;99835.06;;;20.28;90.07
49459;BME280;35354;51.296;16.924;2022-10-16T11:13:48;99832.03;;;20.32;88.21
49459;BME280;35354;51.296;16.924;2022-10-16T11:16:30;99818.56;;;20.35;87.76
49459;BME280;35354;51.296;16.924;2022-10-16T11:30:15;99820.34;;;20.14;89.44
49459;BME280;35354;51.296;16.924;2022-10-16T11:38:02;99819.44;;;20.04;88.84
49459;BME280;35354;51.296;16.924;2022-10-16T11:40:33;99834.09;;;20.08;88.72
49459;BME280;35354;51.296;16.924;2022-10-16T11:43:17;99819.56;;;20.02;89.10
49459;BME280;35354;51.296;16.924;2022-10-16T11:45:49;99833.25;;;20.07;89.30
49459;BME280;35354;51.296;16.924;2022-10-16T11:54:04;99835.19;;;20.26;88.04
49459;BME280;35354;51.296;16.924;2022-10-16T11:56:37;99835.19;;;20.26;87.60
49459;BME280;35354;51.296;16.924;2022-10-16T11:59:16;99818.88;;;20.21;87.58
49459;BME280;35354;51.296;16.924;2022-10-16T12:01:52;99838.66;;;20.27;87.40
49459;BME280;35354;51.296;16.924;2022-10-16T12:04:49;99855.00;;;20.32;88.14
49459;BME280;35354;51.296;16.924;2022-10-16T12:07:22;99839.78;;;20.24;88.48
49459;BME280;35354;51.296;16.924;2022-10-16T12:09:49;99853.31;;;20.31;88.32
49459;BME280;35354;51.296;16.924;2022-10-16T12:12:38;99856.09;;;20.29;88.30
49459;BME280;35354;51.296;16.924;2022-10-16T12:17:51;99852.25;;;20.22;88.65
49459;BME280;35354;51.296;16.924;2022-10-16T12:22:56;99859.66;;;20.18;88.76
49459;BME280;35354;51.296;16.924;2022-10-16T12:25:28;99849.75;;;20.21;88.83
49459;BME280;35354;51.296;16.924;2022-10-16T12:28:18;99858.53;;;20.21;88.94
49459;BME280;35354;51.296;16.924;2022-10-16T12:30:54;99865.50;;;20.22;88.81
49459;BME280;35354;51.296;16.924;2022-10-16T12:33:27;99855.88;;;20.21;89.05
49459;BME280;35354;51.296;16.924;2022-10-16T12:35:55;99866.22;;;20.24;88.51
49459;BME280;35354;51.296;16.924;2022-10-16T12:38:25;99870.41;;;20.27;88.41
49459;BME280;35354;51.296;16.924;2022-10-16T12:41:09;99872.59;;;20.22;88.53
49459;BME280;35354;51.296;16.924;2022-10-16T12:48:36;99882.41;;;20.31;88.41
49459;BME280;35354;51.296;16.924;2022-10-16T12:51:20;99888.75;;;20.39;88.40
49459;BME280;35354;51.296;16.924;2022-10-16T12:53:58;99890.53;;;20.39;88.31
49459;BME280;35354;51.296;16.924;2022-10-16T13:04:23;99889.94;;;20.14;89.16
49459;BME280;35354;51.296;16.924;2022-10-16T13:06:58;99893.16;;;20.18;89.22
49459;BME280;35354;51.296;16.924;2022-10-16T13:16:01;99884.78;;;20.13;89.69
49459;BME280;35354;51.296;16.924;2022-10-16T13:24:13;99899.72;;;20.03;90.39
49459;BME280;35354;51.296;16.924;2022-10-16T13:29:18;99896.13;;;19.92;90.75
49459;BME280;35354;51.296;16.924;2022-10-16T13:31:44;99908.63;;;20.02;90.94
49459;BME280;35354;51.296;16.924;2022-10-16T13:34:15;99901.31;;;19.94;90.59
49459;BME280;35354;51.296;16.924;2022-10-16T13:36:48;99914.28;;;19.97;90.64
49459;BME280;35354;51.296;16.924;2022-10-16T13:39:25;99914.66;;;19.92;90.84
49459;BME280;35354;51.296;16.924;2022-10-16T13:42:04;99904.44;;;19.88;91.18
49459;BME280;35354;51.296;16.924;2022-10-16T13:44:41;99893.19;;;19.75;91.07
49459;BME280;35354;51.296;16.924;2022-10-16T13:47:16;99910.13;;;19.83;91.24
49459;BME280;35354;51.296;16.924;2022-10-16T13:49:42;99909.66;;;19.78;91.51
49459;BME280;35354;51.296;16.924;2022-10-16T13:52:20;99917.81;;;19.86;91.32
49459;BME280;35354;51.296;16.924;2022-10-16T13:54:45;99922.56;;;19.92;91.17
49459;BME280;35354;51.296;16.924;2022-10-16T13:57:14;99925.56;;;19.99;91.03
49459;BME280;35354;51.296;16.924;2022-10-16T13:59:39;99918.25;;;19.91;90.70
49459;BME280;35354;51.296;16.924;2022-10-16T14:04:53;99930.66;;;19.91;90.81
49459;BME280;35354;51.296;16.924;2022-10-16T14:07:28;99931.84;;;19.87;90.75
49459;BME280;35354;51.296;16.924;2022-10-16T14:09:55;99942.28;;;19.88;91.10
49459;BME280;35354;51.296;16.924;2022-10-16T14:12:23;99948.22;;;19.81;91.28
49459;BME280;35354;51.296;16.924;2022-10-16T14:14:53;99961.53;;;19.79;91.52
49459;BME280;35354;51.296;16.924;2022-10-16T14:17:23;99946.06;;;19.75;91.93
49459;BME280;35354;51.296;16.924;2022-10-16T14:19:51;99942.09;;;19.69;92.21
49459;BME280;35354;51.296;16.924;2022-10-16T14:22:30;99947.63;;;19.66;92.62
49459;BME280;35354;51.296;16.924;2022-10-16T14:24:57;99950.63;;;19.61;92.93
49459;BME280;35354;51.296;16.924;2022-10-16T14:27:33;99939.56;;;19.45;93.33
49459;BME280;35354;51.296;16.924;2022-10-16T14:30:11;99955.66;;;19.42;94.15
49459;BME280;35354;51.296;16.924;2022-10-16T14:32:40;99952.53;;;19.37;94.47
49459;BME280;35354;51.296;16.924;2022-10-16T14:35:25;99950.84;;;19.25;95.34
49459;BME280;35354;51.296;16.924;2022-10-16T14:37:53;99950.25;;;19.21;95.52
49459;BME280;35354;51.296;16.924;2022-10-16T14:40:18;99946.16;;;19.17;95.58
49459;BME280;35354;51.296;16.924;2022-10-16T14:42:45;99954.94;;;19.17;95.93
49459;BME280;35354;51.296;16.924;2022-10-16T14:45:11;99950.13;;;19.11;96.16
49459;BME280;35354;51.296;16.924;2022-10-16T14:47:48;99962.25;;;19.14;96.52